createdAt,value
2023-05-08T00:03:45.510Z,15.93
2023-05-08T00:08:39.583Z,15.23
2023-05-08T00:13:32.285Z,16.25
2023-05-08T00:18:25.484Z,16.60
2023-05-08T00:23:19.506Z,14.90
2023-05-08T00:28:13.626Z,17.63
2023-05-08T00:33:05.953Z,15.63
2023-05-08T00:37:59.695Z,15.55
2023-05-08T00:42:53.734Z,14.18
2023-05-08T00:47:46.456Z,16.38
2023-05-08T00:52:40.111Z,14.90
2023-05-08T00:57:36.311Z,13.23
2023-05-08T01:02:31.891Z,15.43
2023-05-08T01:07:25.867Z,13.07
2023-05-08T01:12:40.750Z,15.93
2023-05-08T01:17:46.337Z,13.00
2023-05-08T01:23:04.111Z,13.05
2023-05-08T01:28:32.499Z,12.80
2023-05-08T01:33:37.407Z,16.88
2023-05-08T01:38:44.560Z,13.90
2023-05-08T01:44:01.861Z,11.70
2023-05-08T01:49:04.162Z,12.20
2023-05-08T01:54:01.395Z,16.88
2023-05-08T01:58:55.087Z,13.80
2023-05-08T02:03:48.507Z,14.43
2023-05-08T02:08:42.343Z,15.35
2023-05-08T02:13:36.708Z,15.93
2023-05-08T02:18:31.495Z,16.30
2023-05-08T02:23:27.175Z,20.33
2023-05-08T02:28:21.417Z,19.08
2023-05-08T02:33:15.676Z,15.90
2023-05-08T02:38:11.136Z,16.73
2023-05-08T02:43:05.553Z,18.17
2023-05-08T02:48:21.582Z,17.27
2023-05-08T02:53:20.869Z,17.05
2023-05-08T02:58:25.408Z,16.83
2023-05-08T03:03:25.378Z,17.60
2023-05-08T03:08:22.212Z,13.65
2023-05-08T03:13:15.638Z,12.07
2023-05-08T03:18:31.139Z,10.80
2023-05-08T03:23:25.816Z,8.43
2023-05-08T03:28:22.976Z,8.48
2023-05-08T03:33:18.473Z,9.32
2023-05-08T03:38:11.494Z,6.80
2023-05-08T03:43:08.861Z,13.05
2023-05-08T03:48:03.974Z,5.45
2023-05-08T03:52:58.965Z,14.45
2023-05-08T03:57:57.512Z,7.40
2023-05-08T04:07:56.305Z,8.50
2023-05-08T04:12:57.787Z,12.65
2023-05-08T04:17:55.782Z,6.68
2023-05-08T04:22:51.428Z,9.95
2023-05-08T04:27:46.352Z,10.77
2023-05-08T04:32:41.310Z,14.38
2023-05-08T04:37:37.704Z,12.15
2023-05-08T04:42:30.877Z,14.07
2023-05-08T04:47:26.290Z,14.80
2023-05-08T04:52:20.630Z,17.10
2023-05-08T04:57:15.143Z,14.25
2023-05-08T05:02:09.567Z,17.63
2023-05-08T05:07:04.519Z,7.97
2023-05-08T05:11:58.439Z,10.10
2023-05-08T05:16:52.199Z,11.60
2023-05-08T05:21:45.156Z,11.13
2023-05-08T05:26:38.664Z,9.35
2023-05-08T05:31:32.130Z,15.55
2023-05-08T05:36:25.699Z,12.98
2023-05-08T05:41:19.422Z,15.88
2023-05-08T05:46:12.957Z,13.52
2023-05-08T05:51:06.370Z,16.77
2023-05-08T05:56:00.713Z,17.92
2023-05-08T06:00:54.149Z,14.80
2023-05-08T06:05:48.599Z,15.15
2023-05-08T06:10:41.976Z,18.63
2023-05-08T06:15:37.529Z,16.65
2023-05-08T06:20:31.461Z,14.32
2023-05-08T06:25:24.713Z,13.43
2023-05-08T06:30:18.814Z,5.88
2023-05-08T06:35:12.920Z,10.60
2023-05-08T06:40:12.069Z,13.40
2023-05-08T06:45:09.956Z,5.18
2023-05-08T06:50:04.288Z,5.15
2023-05-08T06:54:57.913Z,4.30
2023-05-08T06:59:50.926Z,4.85
2023-05-08T07:04:45.490Z,5.97
2023-05-08T07:09:39.098Z,5.45
2023-05-08T07:14:32.269Z,13.05
2023-05-08T07:19:25.685Z,4.05
2023-05-08T07:24:19.138Z,3.88
2023-05-08T07:29:13.478Z,6.07
2023-05-08T07:34:07.357Z,5.22
2023-05-08T07:39:00.799Z,9.75
2023-05-08T07:43:54.065Z,8.13
2023-05-08T07:48:47.791Z,8.50
2023-05-08T07:53:42.005Z,10.95
2023-05-08T07:58:35.555Z,9.45
2023-05-08T08:03:29.503Z,12.35
2023-05-08T08:08:22.785Z,10.80
2023-05-08T08:13:15.555Z,8.88
2023-05-08T08:18:09.104Z,7.05
2023-05-08T08:23:03.257Z,8.70
2023-05-08T08:27:56.826Z,8.63
2023-05-08T08:32:50.041Z,8.55
2023-05-08T08:37:43.860Z,6.20
2023-05-08T08:42:37.489Z,7.70
2023-05-08T08:47:32.854Z,5.15
2023-05-08T08:52:32.323Z,4.63
2023-05-08T08:57:28.805Z,3.47
2023-05-08T09:02:24.009Z,4.75
2023-05-08T09:07:19.027Z,3.50
2023-05-08T09:12:14.974Z,4.10
2023-05-08T09:17:08.663Z,2.83
2023-05-08T09:22:02.308Z,6.78
2023-05-08T09:26:55.472Z,3.53
2023-05-08T09:31:50.198Z,3.67
2023-05-08T09:36:43.893Z,6.20
2023-05-08T09:41:37.912Z,4.28
2023-05-08T09:46:32.245Z,4.28
2023-05-08T09:51:27.275Z,5.00
2023-05-08T09:56:37.079Z,4.80
2023-05-08T10:01:32.351Z,5.60
2023-05-08T10:06:25.714Z,7.85
2023-05-08T10:11:20.327Z,5.95
2023-05-08T10:16:18.128Z,8.77
2023-05-08T10:21:12.739Z,5.47
2023-05-08T10:26:13.291Z,4.60
2023-05-08T10:31:09.247Z,5.13
2023-05-08T10:36:02.966Z,5.43
2023-05-08T10:40:59.339Z,4.15
2023-05-08T10:45:55.037Z,6.83
2023-05-08T10:51:12.521Z,4.47
2023-05-08T10:56:06.994Z,4.22
2023-05-08T11:01:25.528Z,7.35
2023-05-08T11:06:19.035Z,3.92
2023-05-08T11:11:34.250Z,3.75
2023-05-08T11:17:01.746Z,3.53
2023-05-08T11:22:55.451Z,3.85
2023-05-08T11:27:51.649Z,2.60
2023-05-08T11:33:15.060Z,3.25
2023-05-08T11:38:24.447Z,2.88
2023-05-08T11:43:44.958Z,3.58
2023-05-08T11:48:38.116Z,3.42
2023-05-08T11:53:51.043Z,7.22
2023-05-08T11:58:44.598Z,3.35
2023-05-08T12:03:37.924Z,11.05
2023-05-08T12:08:30.897Z,3.83
2023-05-08T12:13:26.075Z,4.00
2023-05-08T12:18:18.458Z,5.60
2023-05-08T12:23:11.425Z,5.30
2023-05-08T12:28:04.864Z,3.33
2023-05-08T12:32:59.658Z,2.88
2023-05-08T12:37:53.363Z,4.15
2023-05-08T12:42:50.237Z,2.00
2023-05-08T12:47:49.418Z,4.93
2023-05-08T12:52:43.091Z,2.15
2023-05-08T12:57:38.065Z,2.50
2023-05-08T13:02:31.801Z,5.18
2023-05-08T13:07:25.050Z,4.43
2023-05-08T13:12:19.133Z,2.72
2023-05-08T13:17:19.057Z,4.38
2023-05-08T13:22:13.105Z,3.08
2023-05-08T13:27:06.318Z,3.10
2023-05-08T13:31:59.519Z,3.13
2023-05-08T13:36:53.058Z,3.38
2023-05-08T13:41:47.409Z,2.40
2023-05-08T13:46:40.473Z,5.70
2023-05-08T13:51:33.173Z,11.55
2023-05-08T13:56:26.280Z,8.20
2023-05-08T14:01:26.325Z,5.78
2023-05-08T14:06:22.640Z,4.90
2023-05-08T14:11:16.208Z,3.45
2023-05-08T14:16:11.043Z,4.55
2023-05-08T14:21:04.527Z,5.30
2023-05-08T14:25:59.036Z,3.53
2023-05-08T14:30:52.639Z,4.60
2023-05-08T14:35:48.717Z,5.53
2023-05-08T14:40:41.458Z,4.22
2023-05-08T14:45:34.814Z,3.20
2023-05-08T14:50:28.377Z,5.57
2023-05-08T14:55:22.075Z,4.30
2023-05-08T15:00:17.705Z,5.63
2023-05-08T15:10:24.850Z,4.45
2023-05-08T15:15:18.031Z,5.53
2023-05-08T15:20:12.146Z,5.78
2023-05-08T15:25:07.006Z,4.95
2023-05-08T15:30:00.679Z,3.88
2023-05-08T15:34:54.839Z,4.60
2023-05-08T15:39:47.876Z,4.30
2023-05-08T15:49:54.693Z,4.95
2023-05-08T15:54:48.852Z,7.97
2023-05-08T15:59:42.154Z,4.97
2023-05-08T16:04:36.009Z,6.50
2023-05-08T16:09:30.399Z,5.43
2023-05-08T16:14:23.751Z,6.50
2023-05-08T16:19:17.098Z,6.38
2023-05-08T16:24:10.252Z,9.55
2023-05-08T16:29:03.364Z,5.13
2023-05-08T16:33:57.057Z,7.75
2023-05-08T16:38:51.067Z,4.97
2023-05-08T16:43:44.735Z,5.80
2023-05-08T16:48:37.909Z,5.22
2023-05-08T16:53:33.007Z,10.25
2023-05-08T16:58:27.637Z,7.93
2023-05-08T17:03:20.671Z,8.13
2023-05-08T17:08:14.455Z,6.35
2023-05-08T17:13:07.705Z,4.93
2023-05-08T17:18:01.354Z,5.70
2023-05-08T17:22:56.015Z,4.95
2023-05-08T17:27:49.389Z,5.03
2023-05-08T17:32:43.046Z,7.85
2023-05-08T17:37:36.733Z,6.20
2023-05-08T17:42:30.447Z,4.75
2023-05-08T17:47:24.424Z,4.65
2023-05-08T17:52:17.977Z,4.47
2023-05-08T17:57:11.794Z,8.02
2023-05-08T18:02:05.448Z,5.70
2023-05-08T18:06:57.749Z,5.47
2023-05-08T18:11:50.729Z,5.53
2023-05-08T18:16:44.437Z,7.03
2023-05-08T18:21:37.808Z,5.70
2023-05-08T18:26:31.616Z,5.47
2023-05-08T18:31:25.281Z,7.63
2023-05-08T18:36:20.117Z,5.97
2023-05-08T18:41:13.949Z,5.93
2023-05-08T18:46:13.011Z,6.82
2023-05-08T18:55:59.328Z,9.27
2023-05-08T19:00:56.863Z,6.28
2023-05-08T19:05:51.558Z,6.95
2023-05-08T19:10:44.805Z,5.90
2023-05-08T19:15:38.582Z,8.07
2023-05-08T19:20:31.607Z,5.78
2023-05-08T19:25:25.637Z,5.30
2023-05-08T19:30:19.737Z,5.82
2023-05-08T19:35:14.560Z,5.95
2023-05-08T19:40:08.824Z,6.53
2023-05-08T19:45:02.482Z,9.55
2023-05-08T19:49:56.122Z,6.07
2023-05-08T19:54:50.520Z,10.57
2023-05-08T19:59:44.946Z,8.18
2023-05-08T20:04:54.515Z,7.18
2023-05-08T20:09:52.363Z,7.40
2023-05-08T20:14:46.107Z,10.30
2023-05-08T20:19:41.026Z,7.97
2023-05-08T20:24:34.421Z,8.70
2023-05-08T20:29:29.524Z,7.57
2023-05-08T20:34:22.194Z,9.38
2023-05-08T20:39:15.338Z,7.03
2023-05-08T20:44:09.377Z,8.85
2023-05-08T20:49:04.518Z,7.10
2023-05-08T20:53:57.474Z,8.02
2023-05-08T20:58:51.736Z,9.05
2023-05-08T21:03:46.062Z,9.50
2023-05-08T21:08:40.250Z,7.97
2023-05-08T21:13:33.476Z,8.02
2023-05-08T21:18:26.832Z,9.05
2023-05-08T21:23:21.039Z,10.27
2023-05-08T21:28:15.467Z,7.95
2023-05-08T21:33:10.689Z,7.50
2023-05-08T21:38:04.827Z,8.52
2023-05-08T21:42:58.338Z,7.90
2023-05-08T21:47:51.944Z,10.75
2023-05-08T21:52:44.752Z,9.20
2023-05-08T21:57:38.926Z,12.45
2023-05-08T22:02:33.094Z,10.57
2023-05-08T22:07:26.653Z,10.65
2023-05-08T22:12:20.829Z,7.40
2023-05-08T22:17:13.977Z,8.85
2023-05-08T22:22:07.755Z,7.63
2023-05-08T22:27:01.435Z,14.70
2023-05-08T22:31:55.705Z,12.68
2023-05-08T22:36:47.746Z,9.98
2023-05-08T22:41:41.580Z,9.38
2023-05-08T22:46:35.754Z,9.88
2023-05-08T22:51:30.763Z,10.98
2023-05-08T22:56:24.778Z,12.23
2023-05-08T23:01:18.936Z,13.60
2023-05-08T23:06:13.473Z,10.20
2023-05-08T23:11:05.795Z,14.90
2023-05-08T23:15:58.871Z,15.45
2023-05-08T23:20:52.379Z,15.38
2023-05-08T23:25:46.120Z,20.63
2023-05-08T23:30:38.753Z,19.00
2023-05-08T23:35:32.335Z,27.48
2023-05-08T23:40:25.359Z,18.67
2023-05-08T23:45:18.216Z,19.23
2023-05-08T23:50:13.578Z,18.63
2023-05-08T23:55:08.313Z,19.80
